Latest Weather Observations for Richmond

IDN60901

Issued at 6:11 am EST Sunday 29 May 2016 (issued every 10 minutes, with the page automatically refreshed every 10 minutes)

About weather observations | Map of Sydney area stations | Latest observations for Sydney area | Other Formats
Station Details ID: 067105 Name: RICHMOND RAAF Lat: -33.60 Lon: 150.78 Height: 19.0 m
Data from the previous 72 hours. | See also: Recent months at Richmond
Date/Time
EST
Tmp

°C
App
Tmp
°C
Dew
Point
°C
Rel
Hum
%
Delta-T

°C
Wind Press
QNH
hPa
Press
MSL
hPa
Rain
since
9 am
mm
Dir
 
Spd
km/h
Gust
km/h
Spd
kts
Gust
kts
29/06:00am 2.1 0.0 1.8 98 0.1 ESE 2 7 1 4 1015.7 1015.7 0.4
29/05:30am 1.0 -1.3 0.7 98 0.1 E 2 7 1 4 1015.4 1015.4 0.4
29/05:00am 0.8 -1.5 0.2 96 0.2 SW 2 9 1 5 1015.0 1015.0 0.4
29/04:30am 1.5 -0.3 1.2 98 0.1 CALM 0 0 0 0 1014.7 1014.7 0.4
29/04:00am 1.8 -0.3 1.5 98 0.1 NNW 2 7 1 4 1014.5 1014.5 0.4
29/03:30am 2.4 0.4 2.1 98 0.1 ENE 2 7 1 4 1014.4 1014.4 0.4
29/03:00am 1.1 -1.2 0.4 95 0.3 ESE 2 6 1 3 1014.3 1014.3 0.4
29/02:30am 3.2 1.3 2.9 98 0.1 ENE 2 7 1 4 1014.1 1014.1 0.4
29/02:00am 2.9 0.9 2.3 96 0.2 E 2 7 1 4 1014.1 1014.1 0.4
29/01:30am 3.9 1.7 3.2 95 0.3 SE 4 7 2 4 1013.9 1013.9 0.4
29/01:00am 3.3 1.7 2.6 95 0.3 CALM 0 7 0 4 1013.7 1013.7 0.4
29/12:30am 3.8 1.1 2.8 93 0.4 NW 6 9 3 5 1013.7 1013.7 0.4
29/12:00am 4.4 2.2 3.4 93 0.4 NNE 4 9 2 5 1013.5 1013.5 0.4
 
Date/Time
EST
Tmp

°C
App
Tmp
°C
Dew
Point
°C
Rel
Hum
%
Delta-T

°C
Wind Press
QNH
hPa
Press
MSL
hPa
Rain
since
9 am
mm
Dir
 
Spd
km/h
Gust
km/h
Spd
kts
Gust
kts
28/11:30pm 4.2 1.9 2.7 90 0.6 ENE 4 9 2 5 1013.5 1013.5 0.4
28/11:00pm 4.9 3.4 3.1 88 0.7 CALM 0 0 0 0 1013.2 1013.2 0.4
28/10:30pm 6.1 4.4 3.8 85 1.0 NNE 2 9 1 5 1012.9 1012.9 0.4
28/10:00pm 7.4 4.9 3.8 78 1.5 NE 6 7 3 4 1012.7 1012.7 0.4
28/09:30pm 7.6 6.2 3.5 75 1.7 CALM 0 0 0 0 1012.5 1012.5 0.4
28/09:00pm 8.6 7.1 3.2 69 2.3 CALM 0 6 0 3 1012.1 1012.1 0.4
28/08:30pm 10.7 8.1 4.4 65 2.8 WSW 7 13 4 7 1011.8 1011.8 0.4
28/08:00pm 11.9 8.6 4.4 60 3.4 W 11 19 6 10 1011.5 1011.5 0.4
28/07:30pm 12.1 8.4 4.3 59 3.5 W 13 19 7 10 1011.2 1011.2 0.4
28/07:00pm 13.2 8.3 4.9 57 3.8 WSW 20 30 11 16 1010.7 1010.7 0.4
28/06:30pm 12.3 8.2 4.3 58 3.6 W 15 19 8 10 1010.2 1010.2 0.4
28/06:00pm 13.8 8.3 4.1 52 4.4 WSW 22 32 12 17 1009.8 1009.8 0.4
28/05:30pm 14.4 8.9 4.1 50 4.7 WSW 22 30 12 16 1009.0 1009.0 0.4
28/05:00pm 13.9 10.2 4.2 52 4.5 W 13 20 7 11 1008.3 1008.3 0.4
28/04:30pm 15.3 9.1 4.1 47 5.2 W 26 35 14 19 1007.8 1007.8 0.4
28/04:00pm 16.0 10.2 4.4 46 5.4 W 24 35 13 19 1007.4 1007.4 0.4
28/03:30pm 16.3 11.3 4.7 46 5.5 WNW 20 28 11 15 1006.8 1006.8 0.4
28/03:00pm 16.5 11.3 5.5 48 5.3 WNW 22 30 12 16 1006.5 1006.5 0.4
28/02:30pm 16.1 10.6 5.7 50 5.0 W 24 33 13 18 1006.4 1006.4 0.4
28/02:00pm 16.1 9.7 5.4 49 5.1 W 28 39 15 21 1006.1 1006.1 0.4
28/01:39pm 17.0 12.2 5.6 47 5.5 W 20 41 11 22 1005.7 1005.7 0.4
28/01:30pm 17.0 14.6 6.8 51 5.1 WSW 9 17 5 9 1005.7 1005.7 0.2
28/01:00pm 15.2 12.3 6.5 56 4.2 SSW 11 15 6 8 1005.9 1005.9 0.2
28/12:30pm 15.1 11.7 6.1 55 4.3 WSW 13 19 7 10 1005.9 1005.9 0.2
28/12:00pm 14.5 12.0 8.0 65 3.3 WSW 11 13 6 7 1006.2 1006.2 0.2
28/11:30am 12.6 10.9 10.0 84 1.3 SW 9 11 5 6 1006.7 1006.7 0.2
28/11:00am 11.5 9.1 10.1 91 0.7 SW 13 20 7 11 1007.0 1007.0 0.2
28/10:30am 11.9 11.1 9.8 87 1.1 SE 4 9 2 5 1006.9 1006.9 0.2
28/10:00am 11.1 9.0 9.9 92 0.6 NE 11 15 6 8 1007.2 1007.2 0.2
28/09:30am 11.1 8.9 9.4 89 0.9 NE 11 15 6 8 1007.2 1007.2 0.2
28/09:00am 10.5 8.1 8.6 88 0.9 N 11 17 6 9 1007.4 1007.4 0.6
28/08:30am 10.3 7.8 8.2 87 1.0 NNW 11 15 6 8 1007.5 1007.5 0.4
28/08:00am 10.0 7.9 8.3 89 0.8 NNE 9 11 5 6 1007.2 1007.2 0.4
28/07:30am 8.7 7.2 6.7 87 0.9 NNW 4 7 2 4 1007.4 1007.4 0.0
28/07:00am 8.1 6.0 5.7 85 1.1 NE 6 9 3 5 1007.1 1007.1 0.0
28/06:30am 5.8 4.5 4.0 88 0.8 CALM 0 0 0 0 1007.2 1007.2 0.0
28/06:00am 5.7 4.0 3.9 88 0.8 WSW 2 9 1 5 1007.0 1007.0 0.0
28/05:30am 5.5 3.0 3.5 87 0.8 N 6 11 3 6 1006.9 1006.9 0.0
28/05:00am 5.7 2.9 3.2 84 1.0 ESE 7 9 4 5 1007.2 1007.2 0.0
28/04:30am 6.9 4.2 3.5 79 1.4 ENE 7 9 4 5 1007.2 1007.2 0.0
28/04:00am 6.9 4.4 3.5 79 1.4 N 6 7 3 4 1007.0 1007.0 0.0
28/03:30am 7.9 5.4 3.9 76 1.7 N 6 7 3 4 1007.1 1007.1 0.0
28/03:00am 8.2 4.9 4.4 77 1.7 NNE 11 13 6 7 1007.3 1007.3 0.0
28/02:30am 8.7 5.7 4.1 73 2.0 N 9 13 5 7 1007.7 1007.7 0.0
28/02:00am 9.1 6.9 3.3 67 2.5 N 4 9 2 5 1007.8 1007.8 0.0
28/01:30am 11.2 8.2 4.0 61 3.2 NNW 9 11 5 6 1007.9 1007.9 0.0
28/01:00am 9.2 6.1 3.6 68 2.4 N 9 13 5 7 1007.9 1007.9 0.0
28/12:30am 9.6 6.0 3.1 64 2.8 NE 11 13 6 7 1007.9 1007.9 0.0
28/12:00am 9.7 6.2 3.7 66 2.6 ENE 11 13 6 7 1008.1 1008.1 0.0
 
Date/Time
EST
Tmp

°C
App
Tmp
°C
Dew
Point
°C
Rel
Hum
%
Delta-T

°C
Wind Press
QNH
hPa
Press
MSL
hPa
Rain
since
9 am
mm
Dir
 
Spd
km/h
Gust
km/h
Spd
kts
Gust
kts
27/11:30pm 11.5 8.7 3.3 57 3.6 WNW 7 9 4 5 1008.2 1008.2 0.0
27/11:00pm 12.4 9.2 3.1 53 4.1 W 9 13 5 7 1008.2 1008.2 0.0
27/10:30pm 13.0 9.1 3.4 52 4.3 W 13 26 7 14 1008.0 1008.0 0.0
27/10:00pm 12.9 8.1 2.5 49 4.6 W 17 24 9 13 1008.0 1008.0 0.0
27/09:30pm 12.9 7.5 2.5 49 4.6 W 20 33 11 18 1008.1 1008.1 0.0
27/09:00pm 13.5 8.3 2.7 48 4.8 WNW 19 28 10 15 1008.0 1008.0 0.0
27/08:30pm 13.4 8.5 2.3 47 4.9 WNW 17 28 9 15 1007.9 1007.9 0.0
27/08:00pm 13.5 8.1 2.4 47 4.9 W 20 33 11 18 1007.3 1007.3 0.0
27/07:30pm 14.0 8.7 2.0 44 5.2 W 19 32 10 17 1007.1 1007.1 0.0
27/07:00pm 14.5 7.8 1.4 41 5.7 WSW 26 39 14 21 1006.5 1006.5 0.0
27/06:30pm 14.6 7.5 1.2 40 5.8 WSW 28 50 15 27 1005.8 1005.8 0.0
27/06:00pm 14.8 7.3 1.3 40 5.9 WSW 30 41 16 22 1005.1 1005.1 0.0
27/05:30pm 14.1 8.7 1.1 41 5.6 WSW 19 28 10 15 1005.0 1005.0 0.0
27/05:00pm 14.9 8.1 1.1 39 6.0 WSW 26 48 14 26 1004.5 1004.5 0.0
27/04:43pm 15.8 8.3 1.2 37 6.4 WSW 30 50 16 27 1004.0 1004.0 0.0
27/04:30pm 16.1 10.1 1.0 36 6.6 W 22 37 12 20 1003.8 1003.8 0.0
27/04:00pm 16.7 8.6 0.8 34 7.0 WSW 33 52 18 28 1003.2 1003.2 0.0
27/03:30pm 17.0 8.1 0.6 33 7.1 W 37 56 20 30 1002.9 1002.9 0.0
27/03:13pm 17.4 9.4 0.6 32 7.3 W 32 50 17 27 1002.7 1002.7 0.0
27/03:00pm 18.0 10.5 1.1 32 7.5 W 30 41 16 22 1002.6 1002.6 0.0
27/02:41pm 17.9 9.9 0.6 31 7.6 W 32 50 17 27 1002.6 1002.6 0.0
27/02:30pm 18.1 10.5 0.7 31 7.7 WSW 30 46 16 25 1002.7 1002.7 0.0
27/02:23pm 18.1 10.5 0.7 31 7.7 WSW 30 48 16 26 1002.7 1002.7 0.0
27/02:00pm 18.6 11.4 0.7 30 8.0 W 28 39 15 21 1002.6 1002.6 0.0
27/01:33pm 18.6 10.6 0.2 29 8.1 WSW 32 54 17 29 1002.6 1002.6 0.0
27/01:30pm 18.9 11.3 0.5 29 8.1 WSW 30 39 16 21 1002.7 1002.7 0.0
27/01:00pm 19.1 11.5 0.7 29 8.2 WSW 30 41 16 22 1002.4 1002.4 0.0
27/12:37pm 18.8 10.8 0.4 29 8.1 W 32 50 17 27 1002.3 1002.3 0.0
27/12:30pm 19.2 12.0 0.8 29 8.2 W 28 39 15 21 1002.5 1002.5 0.0
27/12:00pm 19.1 12.4 1.6 31 8.0 WSW 26 44 14 24 1002.9 1002.9 0.0
27/11:43am 18.2 11.0 0.4 30 7.8 W 28 46 15 25 1003.0 1003.0 0.0
27/11:30am 18.6 11.0 0.7 30 7.9 W 30 43 16 23 1003.3 1003.3 0.0
27/11:00am 18.1 13.1 1.2 32 7.6 W 17 26 9 14 1003.6 1003.6 0.0
27/10:30am 17.9 12.3 1.4 33 7.4 WSW 20 32 11 17 1003.8 1003.8 0.0
27/10:00am 17.5 10.8 1.5 34 7.2 W 26 33 14 18 1003.9 1003.9 0.0
27/09:30am 16.5 10.5 1.0 35 6.8 W 22 37 12 20 1003.9 1003.9 0.0
27/09:00am 15.7 9.7 1.1 37 6.4 W 22 32 12 17 1003.9 1003.9 0.0
27/08:30am 15.1 9.1 1.3 39 6.0 W 22 37 12 20 1003.8 1003.8 0.0
27/08:00am 14.4 11.2 2.9 46 5.2 NW 9 15 5 8 1003.7 1003.7 0.0
27/07:30am 13.3 9.3 2.8 49 4.6 WNW 13 19 7 10 1003.7 1003.7 0.0
27/07:00am 12.5 7.7 2.4 50 4.4 WNW 17 24 9 13 1003.5 1003.5 0.0
27/06:30am 13.3 6.0 2.5 48 4.7 W 30 43 16 23 1003.2 1003.2 0.0
27/06:00am 13.7 6.5 3.2 49 4.7 W 30 39 16 21 1002.7 1002.7 0.0
27/05:30am 13.5 8.0 3.8 52 4.4 WNW 22 33 12 18 1002.4 1002.4 0.0
27/05:00am 13.8 8.7 4.1 52 4.5 W 20 33 11 18 1002.4 1002.4 0.0
27/04:30am 12.7 8.2 4.4 57 3.8 W 17 22 9 12 1002.3 1002.3 0.0
27/04:00am 11.9 7.3 3.7 57 3.7 W 17 20 9 11 1002.3 1002.3 0.0
27/03:30am 13.5 9.4 4.6 55 4.1 WNW 15 22 8 12 1002.1 1002.1 0.0
27/03:00am 13.6 10.6 3.9 52 4.4 WSW 9 13 5 7 1002.5 1002.5 0.0
27/02:30am 14.2 11.5 3.7 49 4.8 SSE 7 15 4 8 1002.8 1002.8 0.0
27/02:00am 14.9 8.2 3.7 47 5.1 WSW 28 39 15 21 1002.5 1002.5 0.0
27/01:50am 14.9 7.4 3.4 46 5.2 WSW 32 50 17 27 1002.6 1002.6 0.0
27/01:41am 15.1 9.6 3.9 47 5.1 WSW 22 50 12 27 1002.4 1002.4 0.0
27/01:30am 14.4 10.3 4.4 51 4.6 WSW 15 24 8 13 1002.2 1002.2 0.0
27/01:00am 14.9 10.2 5.1 52 4.6 WSW 19 35 10 19 1002.2 1002.2 0.0
27/12:30am 15.7 10.8 5.3 50 4.9 SW 20 28 11 15 1002.3 1002.3 0.0
27/12:00am 14.4 11.1 6.3 58 3.9 WSW 13 17 7 9 1002.4 1002.4 0.0
 
Date/Time
EST
Tmp

°C
App
Tmp
°C
Dew
Point
°C
Rel
Hum
%
Delta-T

°C
Wind Press
QNH
hPa
Press
MSL
hPa
Rain
since
9 am
mm
Dir
 
Spd
km/h
Gust
km/h
Spd
kts
Gust
kts
26/11:30pm 14.0 10.9 7.1 63 3.4 W 13 15 7 8 1002.2 1002.2 0.0
26/11:00pm 14.5 11.0 7.1 61 3.6 W 15 22 8 12 1002.5 1002.5 0.0
26/10:30pm 14.5 11.6 8.2 66 3.2 W 13 20 7 11 1002.5 1002.5 0.0
26/10:00pm 13.8 10.9 8.2 69 2.8 WNW 13 19 7 10 1002.5 1002.5 0.0
26/09:30pm 14.1 12.0 8.3 68 2.9 WNW 9 17 5 9 1002.5 1002.5 0.0
26/09:00pm 14.1 13.0 8.5 69 2.8 WNW 4 11 2 6 1002.8 1002.8 0.0
26/08:30pm 12.8 11.0 7.3 69 2.7 NNW 6 9 3 5 1002.5 1002.5 0.0
26/08:00pm 13.7 12.8 7.9 68 2.9 WNW 2 7 1 4 1002.4 1002.4 0.0
26/07:30pm 14.5 12.9 8.0 65 3.2 E 6 7 3 4 1002.1 1002.1 0.0
26/07:00pm 15.5 13.5 8.7 64 3.5 NW 9 13 5 7 1002.0 1002.0 0.0
26/06:30pm 15.8 13.4 8.5 62 3.7 NNW 11 17 6 9 1001.9 1001.9 0.0
26/06:00pm 16.5 12.6 8.7 60 4.0 NW 19 26 10 14 1001.7 1001.7 0.0
26/05:30pm 17.0 14.4 9.4 61 4.0 NW 13 22 7 12 1001.7 1001.7 0.0
26/05:00pm 17.7 15.8 9.1 57 4.5 NW 9 15 5 8 1001.4 1001.4 0.0
26/04:30pm 18.7 15.8 9.5 55 4.9 NW 15 20 8 11 1001.1 1001.1 0.0
26/04:00pm 19.7 15.1 9.6 52 5.4 NW 24 35 13 19 1001.0 1001.0 0.0
26/03:30pm 20.4 15.8 9.6 50 5.8 NW 24 43 13 23 1001.1 1001.1 0.0
26/03:00pm 21.0 17.1 9.6 48 6.1 NW 20 33 11 18 1001.1 1001.1 0.0
26/02:30pm 21.6 16.4 10.4 49 6.1 NW 28 43 15 23 1001.3 1001.3 0.0
26/02:00pm 20.5 14.2 9.1 48 6.1 NW 32 39 17 21 1001.5 1001.5 0.0
26/01:30pm 19.2 14.8 9.1 52 5.3 NNW 22 32 12 17 1002.1 1002.1 0.0
26/01:00pm 18.6 12.6 8.6 52 5.2 NNW 30 37 16 20 1002.8 1002.8 0.0
26/12:30pm 17.4 12.5 8.5 56 4.6 NNW 24 37 13 20 1003.2 1003.2 0.0
26/12:13pm 18.4 12.3 8.4 52 5.2 NNW 30 52 16 28 1003.3 1003.3 0.0
26/12:00pm 17.8 12.6 8.9 56 4.6 NNW 26 37 14 20 1003.8 1003.8 0.0
26/11:30am 17.1 11.1 8.5 57 4.4 NNW 30 39 16 21 1004.1 1004.1 0.0
26/11:00am 16.8 11.0 8.0 56 4.5 N 28 41 15 22 1004.3 1004.3 0.0
26/10:56am 16.8 11.0 8.0 56 4.5 N 28 41 15 22 1004.6 1004.6 0.0
26/10:30am 16.3 12.3 6.7 53 4.7 NE 17 22 9 12 1005.8 1005.8 0.0
26/10:00am 16.0 11.9 6.4 53 4.7 NE 17 20 9 11 1006.6 1006.6 0.0
26/09:30am 15.9 11.2 6.1 52 4.7 NNE 20 26 11 14 1006.4 1006.4 0.0
26/09:00am 15.9 10.8 6.1 52 4.8 NNE 22 28 12 15 1006.3 1006.3 0.0
26/08:30am 15.0 9.0 5.5 53 4.5 NNE 26 33 14 18 1006.6 1006.6 0.0
26/08:00am 13.9 11.0 6.3 60 3.7 NNW 11 15 6 8 1008.1 1008.1 0.0
26/07:30am 14.3 10.2 6.4 59 3.8 NNE 17 19 9 10 1008.2 1008.2 0.0
26/07:00am 10.3 9.7 7.2 81 1.5 CALM 0 4 0 2 1008.5 1008.5 0.0
26/06:30am 11.1 9.3 7.8 80 1.6 ESE 7 11 4 6 1008.7 1008.7 0.0

Latest Capital City Observations: Canberra | Sydney | Melbourne | Brisbane | Adelaide | Perth | Hobart | Darwin

Other Formats:

Comma delimited format used in spreadsheet applications
http://www.bom.gov.au/fwo/IDN60901/IDN60901.95753.axf

JavaScript Object Notation format (JSON) in row-major order
http://www.bom.gov.au/fwo/IDN60901/IDN60901.95753.json